sensor_id;sensor_type;location;lat;lon;timestamp;temperature;humidity
10472;DHT22;5283;48.876;8.962;2023-10-19T00:01:23;11.60;99.90
10472;DHT22;5283;48.876;8.962;2023-10-19T00:03:54;11.60;99.90
10472;DHT22;5283;48.876;8.962;2023-10-19T00:06:22;11.60;99.90
10472;DHT22;5283;48.876;8.962;2023-10-19T00:08:49;11.60;99.90
10472;DHT22;5283;48.876;8.962;2023-10-19T00:11:18;11.70;99.90
10472;DHT22;5283;48.876;8.962;2023-10-19T00:13:49;11.70;99.90
10472;DHT22;5283;48.876;8.962;2023-10-19T00:16:21;11.70;99.90
10472;DHT22;5283;48.876;8.962;2023-10-19T00:18:55;11.70;99.90
10472;DHT22;5283;48.876;8.962;2023-10-19T00:21:26;11.70;99.90
10472;DHT22;5283;48.876;8.962;2023-10-19T00:23:56;11.70;99.90
10472;DHT22;5283;48.876;8.962;2023-10-19T00:26:27;11.70;99.90
10472;DHT22;5283;48.876;8.962;2023-10-19T00:28:56;11.80;99.90
10472;DHT22;5283;48.876;8.962;2023-10-19T00:31:25;11.80;99.90
10472;DHT22;5283;48.876;8.962;2023-10-19T00:33:54;11.80;99.90
10472;DHT22;5283;48.876;8.962;2023-10-19T00:36:22;11.80;99.90
10472;DHT22;5283;48.876;8.962;2023-10-19T00:38:49;11.80;99.90
10472;DHT22;5283;48.876;8.962;2023-10-19T00:41:20;11.90;99.90
10472;DHT22;5283;48.876;8.962;2023-10-19T00:44:00;11.90;99.90
10472;DHT22;5283;48.876;8.962;2023-10-19T00:46:31;12.00;99.90
10472;DHT22;5283;48.876;8.962;2023-10-19T00:49:02;12.00;99.90
10472;DHT22;5283;48.876;8.962;2023-10-19T00:51:36;12.00;99.90
10472;DHT22;5283;48.876;8.962;2023-10-19T00:54:13;12.00;99.90
10472;DHT22;5283;48.876;8.962;2023-10-19T00:56:44;12.00;99.90
10472;DHT22;5283;48.876;8.962;2023-10-19T00:59:19;12.00;99.90
10472;DHT22;5283;48.876;8.962;2023-10-19T01:01:53;12.10;99.90
10472;DHT22;5283;48.876;8.962;2023-10-19T01:04:22;12.10;99.90
10472;DHT22;5283;48.876;8.962;2023-10-19T01:06:58;12.10;99.90
10472;DHT22;5283;48.876;8.962;2023-10-19T01:09:28;12.10;99.90
10472;DHT22;5283;48.876;8.962;2023-10-19T01:11:55;12.10;99.90
10472;DHT22;5283;48.876;8.962;2023-10-19T01:14:25;12.10;99.90
10472;DHT22;5283;48.876;8.962;2023-10-19T01:16:54;12.10;99.90
10472;DHT22;5283;48.876;8.962;2023-10-19T01:19:24;12.10;99.90
10472;DHT22;5283;48.876;8.962;2023-10-19T01:21:53;12.10;99.90
10472;DHT22;5283;48.876;8.962;2023-10-19T01:24:26;12.10;99.90
10472;DHT22;5283;48.876;8.962;2023-10-19T01:27:06;12.20;99.90
10472;DHT22;5283;48.876;8.962;2023-10-19T01:29:36;12.20;99.90
10472;DHT22;5283;48.876;8.962;2023-10-19T01:32:07;12.20;99.90
10472;DHT22;5283;48.876;8.962;2023-10-19T01:34:38;12.20;99.90
10472;DHT22;5283;48.876;8.962;2023-10-19T01:37:05;12.30;99.90
10472;DHT22;5283;48.876;8.962;2023-10-19T01:39:33;12.30;99.90
10472;DHT22;5283;48.876;8.962;2023-10-19T01:42:02;12.20;99.90
10472;DHT22;5283;48.876;8.962;2023-10-19T01:44:31;12.30;99.90
10472;DHT22;5283;48.876;8.962;2023-10-19T01:46:58;12.30;99.90
10472;DHT22;5283;48.876;8.962;2023-10-19T01:49:27;12.20;99.90
10472;DHT22;5283;48.876;8.962;2023-10-19T01:51:56;12.10;99.90
10472;DHT22;5283;48.876;8.962;2023-10-19T01:54:24;12.20;99.90
10472;DHT22;5283;48.876;8.962;2023-10-19T01:56:55;12.20;99.90
10472;DHT22;5283;48.876;8.962;2023-10-19T01:59:27;12.20;99.90
10472;DHT22;5283;48.876;8.962;2023-10-19T02:01:54;12.30;99.90
10472;DHT22;5283;48.876;8.962;2023-10-19T02:04:21;12.30;99.90
10472;DHT22;5283;48.876;8.962;2023-10-19T02:06:48;12.30;99.90
10472;DHT22;5283;48.876;8.962;2023-10-19T02:09:16;12.30;99.90
10472;DHT22;5283;48.876;8.962;2023-10-19T02:11:56;12.30;99.90
10472;DHT22;5283;48.876;8.962;2023-10-19T02:14:25;12.40;99.90
10472;DHT22;5283;48.876;8.962;2023-10-19T02:16:53;12.40;99.90
10472;DHT22;5283;48.876;8.962;2023-10-19T02:19:24;12.40;99.90
10472;DHT22;5283;48.876;8.962;2023-10-19T02:22:02;12.30;99.90
10472;DHT22;5283;48.876;8.962;2023-10-19T02:24:38;12.30;99.90
10472;DHT22;5283;48.876;8.962;2023-10-19T02:27:07;12.30;99.90
10472;DHT22;5283;48.876;8.962;2023-10-19T02:29:36;12.30;99.90
10472;DHT22;5283;48.876;8.962;2023-10-19T02:32:05;12.30;99.90
10472;DHT22;5283;48.876;8.962;2023-10-19T02:34:32;12.30;99.90
10472;DHT22;5283;48.876;8.962;2023-10-19T02:37:01;12.30;99.90
10472;DHT22;5283;48.876;8.962;2023-10-19T02:39:28;12.30;99.90
10472;DHT22;5283;48.876;8.962;2023-10-19T02:41:55;12.30;99.90
10472;DHT22;5283;48.876;8.962;2023-10-19T02:44:23;12.20;99.90
10472;DHT22;5283;48.876;8.962;2023-10-19T02:46:52;12.20;99.90
10472;DHT22;5283;48.876;8.962;2023-10-19T02:49:21;12.30;99.90
10472;DHT22;5283;48.876;8.962;2023-10-19T02:51:50;12.30;99.90
10472;DHT22;5283;48.876;8.962;2023-10-19T02:54:20;12.30;99.90
10472;DHT22;5283;48.876;8.962;2023-10-19T02:56:54;12.10;99.90
10472;DHT22;5283;48.876;8.962;2023-10-19T02:59:27;12.00;99.90
10472;DHT22;5283;48.876;8.962;2023-10-19T03:01:57;11.80;99.90
10472;DHT22;5283;48.876;8.962;2023-10-19T03:04:44;11.50;99.90
10472;DHT22;5283;48.876;8.962;2023-10-19T03:07:12;11.30;99.90
10472;DHT22;5283;48.876;8.962;2023-10-19T03:09:39;11.30;99.90
10472;DHT22;5283;48.876;8.962;2023-10-19T03:12:06;11.20;99.90
10472;DHT22;5283;48.876;8.962;2023-10-19T03:14:37;11.10;99.90
10472;DHT22;5283;48.876;8.962;2023-10-19T03:17:04;10.90;99.90
10472;DHT22;5283;48.876;8.962;2023-10-19T03:19:31;10.80;99.90
10472;DHT22;5283;48.876;8.962;2023-10-19T03:21:58;10.80;99.90
10472;DHT22;5283;48.876;8.962;2023-10-19T03:24:30;10.80;99.90
10472;DHT22;5283;48.876;8.962;2023-10-19T03:27:04;11.00;99.90
10472;DHT22;5283;48.876;8.962;2023-10-19T03:29:45;11.10;99.90
10472;DHT22;5283;48.876;8.962;2023-10-19T03:32:26;11.00;99.90
10472;DHT22;5283;48.876;8.962;2023-10-19T03:34:54;10.90;99.90
10472;DHT22;5283;48.876;8.962;2023-10-19T03:37:27;10.80;99.90
10472;DHT22;5283;48.876;8.962;2023-10-19T03:39:57;10.90;99.90
10472;DHT22;5283;48.876;8.962;2023-10-19T03:42:24;10.80;99.90
10472;DHT22;5283;48.876;8.962;2023-10-19T03:44:59;10.90;99.90
10472;DHT22;5283;48.876;8.962;2023-10-19T03:47:28;10.90;99.90
10472;DHT22;5283;48.876;8.962;2023-10-19T03:50:02;11.00;99.90
10472;DHT22;5283;48.876;8.962;2023-10-19T03:52:50;11.00;99.90
10472;DHT22;5283;48.876;8.962;2023-10-19T03:55:16;10.90;99.90
10472;DHT22;5283;48.876;8.962;2023-10-19T03:57:49;11.00;99.90
10472;DHT22;5283;48.876;8.962;2023-10-19T04:00:22;11.00;99.90
10472;DHT22;5283;48.876;8.962;2023-10-19T04:02:52;10.90;99.90
10472;DHT22;5283;48.876;8.962;2023-10-19T04:05:22;10.80;99.90
10472;DHT22;5283;48.876;8.962;2023-10-19T04:07:49;10.90;99.90
10472;DHT22;5283;48.876;8.962;2023-10-19T04:10:22;11.10;99.90
10472;DHT22;5283;48.876;8.962;2023-10-19T04:13:01;11.00;99.90
10472;DHT22;5283;48.876;8.962;2023-10-19T04:15:28;11.30;99.90
10472;DHT22;5283;48.876;8.962;2023-10-19T04:18:03;11.30;99.90
10472;DHT22;5283;48.876;8.962;2023-10-19T04:20:38;11.20;99.90
10472;DHT22;5283;48.876;8.962;2023-10-19T04:23:17;11.00;99.90
10472;DHT22;5283;48.876;8.962;2023-10-19T04:25:44;10.90;99.90
10472;DHT22;5283;48.876;8.962;2023-10-19T04:28:12;10.70;99.90
10472;DHT22;5283;48.876;8.962;2023-10-19T04:30:46;10.60;99.90
10472;DHT22;5283;48.876;8.962;2023-10-19T04:33:15;10.50;99.90
10472;DHT22;5283;48.876;8.962;2023-10-19T04:35:43;10.40;99.90
10472;DHT22;5283;48.876;8.962;2023-10-19T04:38:11;10.30;99.90
10472;DHT22;5283;48.876;8.962;2023-10-19T04:40:37;10.20;99.90
10472;DHT22;5283;48.876;8.962;2023-10-19T04:43:04;10.10;99.90
10472;DHT22;5283;48.876;8.962;2023-10-19T04:45:31;10.10;99.90
10472;DHT22;5283;48.876;8.962;2023-10-19T04:47:58;10.10;99.90
10472;DHT22;5283;48.876;8.962;2023-10-19T04:50:25;10.10;99.90
10472;DHT22;5283;48.876;8.962;2023-10-19T04:52:52;10.00;99.90
10472;DHT22;5283;48.876;8.962;2023-10-19T04:55:18;9.90;99.90
10472;DHT22;5283;48.876;8.962;2023-10-19T04:57:45;9.70;99.90
10472;DHT22;5283;48.876;8.962;2023-10-19T05:00:13;9.50;99.90
10472;DHT22;5283;48.876;8.962;2023-10-19T05:02:41;9.40;99.90
10472;DHT22;5283;48.876;8.962;2023-10-19T05:05:08;9.40;99.90
10472;DHT22;5283;48.876;8.962;2023-10-19T05:07:35;9.50;99.90
10472;DHT22;5283;48.876;8.962;2023-10-19T05:10:02;9.50;99.90
10472;DHT22;5283;48.876;8.962;2023-10-19T05:12:29;9.50;99.90
10472;DHT22;5283;48.876;8.962;2023-10-19T05:14:56;9.50;99.90
10472;DHT22;5283;48.876;8.962;2023-10-19T05:17:22;9.50;99.90
10472;DHT22;5283;48.876;8.962;2023-10-19T05:19:50;9.40;99.90
10472;DHT22;5283;48.876;8.962;2023-10-19T05:22:16;9.30;99.90
10472;DHT22;5283;48.876;8.962;2023-10-19T05:24:43;9.10;99.90
10472;DHT22;5283;48.876;8.962;2023-10-19T05:27:11;9.00;99.90
10472;DHT22;5283;48.876;8.962;2023-10-19T05:29:39;9.00;99.90
10472;DHT22;5283;48.876;8.962;2023-10-19T05:32:06;9.00;99.90
10472;DHT22;5283;48.876;8.962;2023-10-19T05:34:35;9.10;99.90
10472;DHT22;5283;48.876;8.962;2023-10-19T05:37:03;9.20;99.90
10472;DHT22;5283;48.876;8.962;2023-10-19T05:39:32;9.30;99.90
10472;DHT22;5283;48.876;8.962;2023-10-19T05:42:00;9.40;99.90
10472;DHT22;5283;48.876;8.962;2023-10-19T05:44:30;9.30;99.90
10472;DHT22;5283;48.876;8.962;2023-10-19T05:46:58;9.20;99.90
10472;DHT22;5283;48.876;8.962;2023-10-19T05:49:25;9.20;99.90
10472;DHT22;5283;48.876;8.962;2023-10-19T05:51:51;9.00;99.90
10472;DHT22;5283;48.876;8.962;2023-10-19T05:54:18;8.90;99.90
10472;DHT22;5283;48.876;8.962;2023-10-19T05:56:45;8.90;99.90
10472;DHT22;5283;48.876;8.962;2023-10-19T05:59:12;8.90;99.90
10472;DHT22;5283;48.876;8.962;2023-10-19T06:01:39;8.90;99.90
10472;DHT22;5283;48.876;8.962;2023-10-19T06:04:07;8.90;99.90
10472;DHT22;5283;48.876;8.962;2023-10-19T06:06:34;9.00;99.90
10472;DHT22;5283;48.876;8.962;2023-10-19T06:09:02;9.10;99.90
10472;DHT22;5283;48.876;8.962;2023-10-19T06:11:31;9.30;99.90
10472;DHT22;5283;48.876;8.962;2023-10-19T06:13:59;9.40;99.90
10472;DHT22;5283;48.876;8.962;2023-10-19T06:16:26;9.60;99.90
10472;DHT22;5283;48.876;8.962;2023-10-19T06:18:54;9.70;99.90
10472;DHT22;5283;48.876;8.962;2023-10-19T06:21:21;9.80;99.90
10472;DHT22;5283;48.876;8.962;2023-10-19T06:23:49;9.90;99.90
10472;DHT22;5283;48.876;8.962;2023-10-19T06:26:17;10.00;99.90
10472;DHT22;5283;48.876;8.962;2023-10-19T06:28:44;10.00;99.90
10472;DHT22;5283;48.876;8.962;2023-10-19T06:31:10;10.00;99.90
10472;DHT22;5283;48.876;8.962;2023-10-19T06:33:37;10.10;99.90
10472;DHT22;5283;48.876;8.962;2023-10-19T06:36:08;10.10;99.90
10472;DHT22;5283;48.876;8.962;2023-10-19T06:38:35;10.20;99.90
10472;DHT22;5283;48.876;8.962;2023-10-19T06:41:13;10.30;99.90
10472;DHT22;5283;48.876;8.962;2023-10-19T06:43:40;10.30;99.90
10472;DHT22;5283;48.876;8.962;2023-10-19T06:46:08;10.40;99.90
10472;DHT22;5283;48.876;8.962;2023-10-19T06:48:38;10.50;99.90
10472;DHT22;5283;48.876;8.962;2023-10-19T06:51:05;10.50;99.90
10472;DHT22;5283;48.876;8.962;2023-10-19T06:53:32;10.70;99.90
10472;DHT22;5283;48.876;8.962;2023-10-19T06:56:00;10.80;99.90
10472;DHT22;5283;48.876;8.962;2023-10-19T06:58:26;11.00;99.90
10472;DHT22;5283;48.876;8.962;2023-10-19T07:00:53;11.10;99.90
10472;DHT22;5283;48.876;8.962;2023-10-19T07:03:23;11.20;99.90
10472;DHT22;5283;48.876;8.962;2023-10-19T07:05:52;11.40;99.90
10472;DHT22;5283;48.876;8.962;2023-10-19T07:08:19;11.50;99.90
10472;DHT22;5283;48.876;8.962;2023-10-19T07:10:47;11.60;99.90
10472;DHT22;5283;48.876;8.962;2023-10-19T07:13:16;11.60;99.90
10472;DHT22;5283;48.876;8.962;2023-10-19T07:15:47;11.60;99.90
10472;DHT22;5283;48.876;8.962;2023-10-19T07:18:15;11.60;99.90
10472;DHT22;5283;48.876;8.962;2023-10-19T07:20:42;11.60;99.90
10472;DHT22;5283;48.876;8.962;2023-10-19T07:23:10;11.70;99.90
10472;DHT22;5283;48.876;8.962;2023-10-19T07:25:48;11.80;99.90
10472;DHT22;5283;48.876;8.962;2023-10-19T07:28:19;11.90;99.90
10472;DHT22;5283;48.876;8.962;2023-10-19T07:30:46;12.10;99.90
10472;DHT22;5283;48.876;8.962;2023-10-19T07:33:14;12.20;99.90
10472;DHT22;5283;48.876;8.962;2023-10-19T07:35:45;12.40;99.90
10472;DHT22;5283;48.876;8.962;2023-10-19T07:38:19;12.30;99.90
10472;DHT22;5283;48.876;8.962;2023-10-19T07:40:48;12.40;99.90
10472;DHT22;5283;48.876;8.962;2023-10-19T07:43:15;12.60;99.90
10472;DHT22;5283;48.876;8.962;2023-10-19T07:45:42;12.80;99.90
10472;DHT22;5283;48.876;8.962;2023-10-19T07:48:09;13.00;99.90
10472;DHT22;5283;48.876;8.962;2023-10-19T07:50:39;13.10;99.90
10472;DHT22;5283;48.876;8.962;2023-10-19T07:53:09;13.10;99.90
10472;DHT22;5283;48.876;8.962;2023-10-19T07:55:37;13.20;99.90
10472;DHT22;5283;48.876;8.962;2023-10-19T07:58:05;13.40;99.90
10472;DHT22;5283;48.876;8.962;2023-10-19T08:00:35;13.70;99.90
10472;DHT22;5283;48.876;8.962;2023-10-19T08:03:03;13.90;99.90
10472;DHT22;5283;48.876;8.962;2023-10-19T08:05:31;14.00;99.90
10472;DHT22;5283;48.876;8.962;2023-10-19T08:07:58;14.20;99.90
10472;DHT22;5283;48.876;8.962;2023-10-19T08:10:27;14.30;99.90
10472;DHT22;5283;48.876;8.962;2023-10-19T08:12:54;14.40;99.90
10472;DHT22;5283;48.876;8.962;2023-10-19T08:15:22;14.30;99.90
10472;DHT22;5283;48.876;8.962;2023-10-19T08:17:50;14.60;99.90
10472;DHT22;5283;48.876;8.962;2023-10-19T08:20:17;14.80;99.90
10472;DHT22;5283;48.876;8.962;2023-10-19T08:22:54;15.10;99.90
10472;DHT22;5283;48.876;8.962;2023-10-19T08:25:26;15.20;99.90
10472;DHT22;5283;48.876;8.962;2023-10-19T08:27:59;15.30;99.90
10472;DHT22;5283;48.876;8.962;2023-10-19T08:30:26;15.40;99.90
10472;DHT22;5283;48.876;8.962;2023-10-19T08:32:54;15.40;99.90
10472;DHT22;5283;48.876;8.962;2023-10-19T08:35:21;15.40;99.90
10472;DHT22;5283;48.876;8.962;2023-10-19T08:37:55;15.60;99.90
10472;DHT22;5283;48.876;8.962;2023-10-19T08:40:26;15.70;99.90
10472;DHT22;5283;48.876;8.962;2023-10-19T08:42:57;15.90;99.90
10472;DHT22;5283;48.876;8.962;2023-10-19T08:45:24;15.90;99.90
10472;DHT22;5283;48.876;8.962;2023-10-19T08:47:56;15.90;99.90
10472;DHT22;5283;48.876;8.962;2023-10-19T08:50:28;16.00;99.90
10472;DHT22;5283;48.876;8.962;2023-10-19T08:52:57;16.10;99.90
10472;DHT22;5283;48.876;8.962;2023-10-19T08:55:25;16.20;99.90
10472;DHT22;5283;48.876;8.962;2023-10-19T08:57:58;16.30;99.90
10472;DHT22;5283;48.876;8.962;2023-10-19T09:00:25;16.40;99.90
10472;DHT22;5283;48.876;8.962;2023-10-19T09:02:53;16.50;99.90
10472;DHT22;5283;48.876;8.962;2023-10-19T09:05:21;16.60;99.90
10472;DHT22;5283;48.876;8.962;2023-10-19T09:07:53;16.80;99.90
10472;DHT22;5283;48.876;8.962;2023-10-19T09:10:24;16.90;99.90
10472;DHT22;5283;48.876;8.962;2023-10-19T09:13:03;17.00;99.90
10472;DHT22;5283;48.876;8.962;2023-10-19T09:15:31;17.20;99.90
10472;DHT22;5283;48.876;8.962;2023-10-19T09:18:18;17.40;99.90
10472;DHT22;5283;48.876;8.962;2023-10-19T09:20:46;17.50;99.90
10472;DHT22;5283;48.876;8.962;2023-10-19T09:23:24;17.50;99.90
10472;DHT22;5283;48.876;8.962;2023-10-19T09:25:52;17.60;99.90
10472;DHT22;5283;48.876;8.962;2023-10-19T09:28:22;17.70;99.90
10472;DHT22;5283;48.876;8.962;2023-10-19T09:30:51;17.80;99.90
10472;DHT22;5283;48.876;8.962;2023-10-19T09:33:19;18.00;99.90
10472;DHT22;5283;48.876;8.962;2023-10-19T09:35:49;18.00;99.90
10472;DHT22;5283;48.876;8.962;2023-10-19T09:38:17;18.20;99.90
10472;DHT22;5283;48.876;8.962;2023-10-19T09:40:49;18.40;99.90
10472;DHT22;5283;48.876;8.962;2023-10-19T09:45:53;18.70;99.90
10472;DHT22;5283;48.876;8.962;2023-10-19T09:48:22;18.80;99.90
10472;DHT22;5283;48.876;8.962;2023-10-19T09:50:54;18.90;99.90
10472;DHT22;5283;48.876;8.962;2023-10-19T09:53:26;18.90;99.90
10472;DHT22;5283;48.876;8.962;2023-10-19T09:55:57;19.00;99.90
10472;DHT22;5283;48.876;8.962;2023-10-19T09:58:45;18.90;99.90
10472;DHT22;5283;48.876;8.962;2023-10-19T10:01:12;18.80;99.90
10472;DHT22;5283;48.876;8.962;2023-10-19T10:03:43;18.80;99.90
10472;DHT22;5283;48.876;8.962;2023-10-19T10:06:14;18.90;99.90
10472;DHT22;5283;48.876;8.962;2023-10-19T10:08:43;19.00;99.90
10472;DHT22;5283;48.876;8.962;2023-10-19T10:11:16;19.20;99.90
10472;DHT22;5283;48.876;8.962;2023-10-19T10:13:44;19.30;99.90
10472;DHT22;5283;48.876;8.962;2023-10-19T10:16:23;19.50;99.90
10472;DHT22;5283;48.876;8.962;2023-10-19T10:18:54;19.50;99.90
10472;DHT22;5283;48.876;8.962;2023-10-19T10:21:22;19.50;99.90
10472;DHT22;5283;48.876;8.962;2023-10-19T10:23:59;19.30;99.90
10472;DHT22;5283;48.876;8.962;2023-10-19T10:26:28;19.10;99.90
10472;DHT22;5283;48.876;8.962;2023-10-19T10:29:14;19.00;99.90
10472;DHT22;5283;48.876;8.962;2023-10-19T10:31:50;18.90;99.90
10472;DHT22;5283;48.876;8.962;2023-10-19T10:37:10;18.80;99.90
10472;DHT22;5283;48.876;8.962;2023-10-19T10:39:39;18.80;99.90
10472;DHT22;5283;48.876;8.962;2023-10-19T10:42:08;18.80;99.90
10472;DHT22;5283;48.876;8.962;2023-10-19T10:44:45;18.80;99.90
10472;DHT22;5283;48.876;8.962;2023-10-19T10:47:19;18.90;99.90
10472;DHT22;5283;48.876;8.962;2023-10-19T10:49:53;19.00;99.90
10472;DHT22;5283;48.876;8.962;2023-10-19T10:55:06;19.00;99.90
10472;DHT22;5283;48.876;8.962;2023-10-19T10:57:33;18.90;99.90
10472;DHT22;5283;48.876;8.962;2023-10-19T11:00:02;18.80;99.90
10472;DHT22;5283;48.876;8.962;2023-10-19T11:02:30;18.90;99.90
10472;DHT22;5283;48.876;8.962;2023-10-19T11:04:57;18.80;99.90
10472;DHT22;5283;48.876;8.962;2023-10-19T11:07:24;18.60;99.90
10472;DHT22;5283;48.876;8.962;2023-10-19T11:09:52;18.40;99.90
10472;DHT22;5283;48.876;8.962;2023-10-19T11:12:19;18.30;99.90
10472;DHT22;5283;48.876;8.962;2023-10-19T11:14:56;18.20;99.90
10472;DHT22;5283;48.876;8.962;2023-10-19T11:17:28;17.90;99.90
10472;DHT22;5283;48.876;8.962;2023-10-19T11:19:59;17.70;99.90
10472;DHT22;5283;48.876;8.962;2023-10-19T11:22:26;17.40;99.90
10472;DHT22;5283;48.876;8.962;2023-10-19T11:24:53;17.20;99.90
10472;DHT22;5283;48.876;8.962;2023-10-19T11:27:25;17.00;99.90
10472;DHT22;5283;48.876;8.962;2023-10-19T11:29:57;16.80;99.90
10472;DHT22;5283;48.876;8.962;2023-10-19T11:32:36;16.50;99.90
10472;DHT22;5283;48.876;8.962;2023-10-19T11:35:04;16.30;99.90
10472;DHT22;5283;48.876;8.962;2023-10-19T11:37:50;16.10;99.90
10472;DHT22;5283;48.876;8.962;2023-10-19T11:40:17;16.10;99.90
10472;DHT22;5283;48.876;8.962;2023-10-19T11:42:46;16.10;99.90
10472;DHT22;5283;48.876;8.962;2023-10-19T11:45:13;16.10;99.90
10472;DHT22;5283;48.876;8.962;2023-10-19T11:47:40;16.10;99.90
10472;DHT22;5283;48.876;8.962;2023-10-19T11:50:07;16.10;99.90
10472;DHT22;5283;48.876;8.962;2023-10-19T11:52:34;16.10;99.90
10472;DHT22;5283;48.876;8.962;2023-10-19T11:55:01;16.10;99.90
10472;DHT22;5283;48.876;8.962;2023-10-19T11:57:29;16.00;99.90
10472;DHT22;5283;48.876;8.962;2023-10-19T11:59:55;16.00;99.90
10472;DHT22;5283;48.876;8.962;2023-10-19T12:02:23;16.00;99.90
10472;DHT22;5283;48.876;8.962;2023-10-19T12:04:50;15.90;99.90
10472;DHT22;5283;48.876;8.962;2023-10-19T12:07:17;15.80;99.90
10472;DHT22;5283;48.876;8.962;2023-10-19T12:09:44;15.80;99.90
10472;DHT22;5283;48.876;8.962;2023-10-19T12:12:11;15.90;99.90
10472;DHT22;5283;48.876;8.962;2023-10-19T12:14:39;15.90;99.90
10472;DHT22;5283;48.876;8.962;2023-10-19T12:17:06;15.90;99.90
10472;DHT22;5283;48.876;8.962;2023-10-19T12:19:34;15.90;99.90
10472;DHT22;5283;48.876;8.962;2023-10-19T12:22:01;15.90;99.90
10472;DHT22;5283;48.876;8.962;2023-10-19T12:24:29;15.90;99.90
10472;DHT22;5283;48.876;8.962;2023-10-19T12:26:56;15.90;99.90
10472;DHT22;5283;48.876;8.962;2023-10-19T12:29:22;15.90;99.90
10472;DHT22;5283;48.876;8.962;2023-10-19T12:31:49;15.90;99.90
10472;DHT22;5283;48.876;8.962;2023-10-19T12:34:16;15.90;99.90
10472;DHT22;5283;48.876;8.962;2023-10-19T12:36:43;15.80;99.90
10472;DHT22;5283;48.876;8.962;2023-10-19T12:39:13;15.80;99.90
10472;DHT22;5283;48.876;8.962;2023-10-19T12:41:59;15.80;99.90
10472;DHT22;5283;48.876;8.962;2023-10-19T12:44:27;15.70;99.90
10472;DHT22;5283;48.876;8.962;2023-10-19T12:47:06;15.70;99.90
10472;DHT22;5283;48.876;8.962;2023-10-19T12:49:43;15.80;99.90
10472;DHT22;5283;48.876;8.962;2023-10-19T12:52:11;15.90;99.90
10472;DHT22;5283;48.876;8.962;2023-10-19T12:54:38;16.00;99.90
10472;DHT22;5283;48.876;8.962;2023-10-19T12:57:05;16.10;99.90
10472;DHT22;5283;48.876;8.962;2023-10-19T12:59:36;16.20;99.90
10472;DHT22;5283;48.876;8.962;2023-10-19T13:02:06;16.20;99.90
10472;DHT22;5283;48.876;8.962;2023-10-19T13:04:35;16.20;99.90
10472;DHT22;5283;48.876;8.962;2023-10-19T13:07:03;16.30;99.90
10472;DHT22;5283;48.876;8.962;2023-10-19T13:09:31;16.30;99.90
10472;DHT22;5283;48.876;8.962;2023-10-19T13:11:59;16.40;99.90
10472;DHT22;5283;48.876;8.962;2023-10-19T13:14:27;16.40;99.90
10472;DHT22;5283;48.876;8.962;2023-10-19T13:16:54;16.40;99.90
10472;DHT22;5283;48.876;8.962;2023-10-19T13:19:21;16.30;99.90
10472;DHT22;5283;48.876;8.962;2023-10-19T13:21:52;16.30;99.90
10472;DHT22;5283;48.876;8.962;2023-10-19T13:24:19;16.30;99.90
10472;DHT22;5283;48.876;8.962;2023-10-19T13:26:48;16.30;99.90
10472;DHT22;5283;48.876;8.962;2023-10-19T13:29:15;16.30;99.90
10472;DHT22;5283;48.876;8.962;2023-10-19T13:31:44;16.30;99.90
10472;DHT22;5283;48.876;8.962;2023-10-19T13:34:16;16.30;99.90
10472;DHT22;5283;48.876;8.962;2023-10-19T13:36:43;16.40;99.90
10472;DHT22;5283;48.876;8.962;2023-10-19T13:39:12;16.40;99.90
10472;DHT22;5283;48.876;8.962;2023-10-19T13:41:45;16.40;99.90
10472;DHT22;5283;48.876;8.962;2023-10-19T13:44:12;16.30;99.90
10472;DHT22;5283;48.876;8.962;2023-10-19T13:46:38;16.30;99.90
10472;DHT22;5283;48.876;8.962;2023-10-19T13:49:05;16.30;99.90
10472;DHT22;5283;48.876;8.962;2023-10-19T13:51:32;16.20;99.90
10472;DHT22;5283;48.876;8.962;2023-10-19T13:53:59;16.20;99.90
10472;DHT22;5283;48.876;8.962;2023-10-19T13:56:26;16.20;99.90
10472;DHT22;5283;48.876;8.962;2023-10-19T13:58:53;16.20;99.90
10472;DHT22;5283;48.876;8.962;2023-10-19T14:01:21;16.20;99.90
10472;DHT22;5283;48.876;8.962;2023-10-19T14:03:54;16.30;99.90
10472;DHT22;5283;48.876;8.962;2023-10-19T14:06:23;16.30;99.90
10472;DHT22;5283;48.876;8.962;2023-10-19T14:08:51;16.30;99.90
10472;DHT22;5283;48.876;8.962;2023-10-19T14:11:18;16.40;99.90
10472;DHT22;5283;48.876;8.962;2023-10-19T14:13:45;16.40;99.90
10472;DHT22;5283;48.876;8.962;2023-10-19T14:16:12;16.40;99.90
10472;DHT22;5283;48.876;8.962;2023-10-19T14:18:38;16.30;99.90
10472;DHT22;5283;48.876;8.962;2023-10-19T14:21:15;16.20;99.90
10472;DHT22;5283;48.876;8.962;2023-10-19T14:23:43;16.10;99.90
10472;DHT22;5283;48.876;8.962;2023-10-19T14:26:11;16.10;99.90
10472;DHT22;5283;48.876;8.962;2023-10-19T14:28:38;16.00;99.90
10472;DHT22;5283;48.876;8.962;2023-10-19T14:31:05;16.00;99.90
10472;DHT22;5283;48.876;8.962;2023-10-19T14:33:34;15.90;99.90
10472;DHT22;5283;48.876;8.962;2023-10-19T14:36:03;15.90;99.90
10472;DHT22;5283;48.876;8.962;2023-10-19T14:38:30;15.90;99.90
10472;DHT22;5283;48.876;8.962;2023-10-19T14:40:57;15.90;99.90
10472;DHT22;5283;48.876;8.962;2023-10-19T14:43:24;15.90;99.90
10472;DHT22;5283;48.876;8.962;2023-10-19T14:45:56;15.90;99.90
10472;DHT22;5283;48.876;8.962;2023-10-19T14:48:25;15.80;99.90
10472;DHT22;5283;48.876;8.962;2023-10-19T14:50:56;15.70;99.90
10472;DHT22;5283;48.876;8.962;2023-10-19T14:53:23;15.70;99.90
10472;DHT22;5283;48.876;8.962;2023-10-19T14:55:51;15.60;99.90
10472;DHT22;5283;48.876;8.962;2023-10-19T14:58:18;15.60;99.90
10472;DHT22;5283;48.876;8.962;2023-10-19T15:00:45;15.50;99.90
10472;DHT22;5283;48.876;8.962;2023-10-19T15:03:13;15.50;99.90
10472;DHT22;5283;48.876;8.962;2023-10-19T15:05:40;15.50;99.90
10472;DHT22;5283;48.876;8.962;2023-10-19T15:08:08;15.50;99.90
10472;DHT22;5283;48.876;8.962;2023-10-19T15:10:40;15.50;99.90
10472;DHT22;5283;48.876;8.962;2023-10-19T15:13:08;15.50;99.90
10472;DHT22;5283;48.876;8.962;2023-10-19T15:15:35;15.50;99.90
10472;DHT22;5283;48.876;8.962;2023-10-19T15:18:03;15.50;99.90
10472;DHT22;5283;48.876;8.962;2023-10-19T15:20:30;15.50;99.90
10472;DHT22;5283;48.876;8.962;2023-10-19T15:22:59;15.50;99.90
10472;DHT22;5283;48.876;8.962;2023-10-19T15:25:25;15.50;99.90
10472;DHT22;5283;48.876;8.962;2023-10-19T15:27:53;15.50;99.90
10472;DHT22;5283;48.876;8.962;2023-10-19T15:30:20;15.50;99.90
10472;DHT22;5283;48.876;8.962;2023-10-19T15:32:48;15.60;99.90
10472;DHT22;5283;48.876;8.962;2023-10-19T15:35:16;15.50;99.90
10472;DHT22;5283;48.876;8.962;2023-10-19T15:37:51;15.60;99.90
10472;DHT22;5283;48.876;8.962;2023-10-19T15:40:22;15.60;99.90
10472;DHT22;5283;48.876;8.962;2023-10-19T15:42:49;15.50;99.90
10472;DHT22;5283;48.876;8.962;2023-10-19T15:45:15;15.50;99.90
10472;DHT22;5283;48.876;8.962;2023-10-19T15:47:46;15.50;99.90
10472;DHT22;5283;48.876;8.962;2023-10-19T15:50:14;15.40;99.90
10472;DHT22;5283;48.876;8.962;2023-10-19T15:52:41;15.40;99.90
10472;DHT22;5283;48.876;8.962;2023-10-19T15:55:12;15.40;99.90
10472;DHT22;5283;48.876;8.962;2023-10-19T15:57:40;15.30;99.90
10472;DHT22;5283;48.876;8.962;2023-10-19T16:00:08;15.30;99.90
10472;DHT22;5283;48.876;8.962;2023-10-19T16:02:40;15.30;99.90
10472;DHT22;5283;48.876;8.962;2023-10-19T16:05:08;15.30;99.90
10472;DHT22;5283;48.876;8.962;2023-10-19T16:07:36;15.20;99.90
10472;DHT22;5283;48.876;8.962;2023-10-19T16:10:04;15.20;99.90